createdAt,value
2023-02-08T00:00:54.782Z,102749.94
2023-02-08T00:03:21.737Z,102736.66
2023-02-08T00:05:48.670Z,102730.16
2023-02-08T00:08:15.779Z,102731.06
2023-02-08T00:10:44.605Z,102740.06
2023-02-08T00:13:11.111Z,102730.94
2023-02-08T00:15:44.950Z,102754.66
2023-02-08T00:18:11.940Z,102741.88
2023-02-08T00:20:40.499Z,102758.09
2023-02-08T00:23:07.807Z,102787.16
2023-02-08T00:25:35.098Z,102774.88
2023-02-08T00:28:05.384Z,102806.84
2023-02-08T00:30:35.921Z,102775.56
2023-02-08T00:33:02.729Z,102826.66
2023-02-08T00:35:29.449Z,102809.97
2023-02-08T00:37:57.138Z,102805.91
2023-02-08T00:40:24.005Z,102848.97
2023-02-08T00:42:50.682Z,102855.41
2023-02-08T00:45:17.515Z,102850.91
2023-02-08T00:47:43.850Z,102851.81
2023-02-08T00:50:10.950Z,102873.59
2023-02-08T00:52:37.463Z,102859.31
2023-02-08T00:55:05.066Z,102854.88
2023-02-08T00:57:35.192Z,102846.38
2023-02-08T01:00:02.227Z,102840.63
2023-02-08T01:02:31.257Z,102855.00
2023-02-08T01:05:00.100Z,102850.78
2023-02-08T01:07:29.911Z,102844.75
2023-02-08T01:10:00.004Z,102867.38
2023-02-08T01:12:26.366Z,102845.13
2023-02-08T01:14:52.967Z,102854.22
2023-02-08T01:17:19.318Z,102836.63
2023-02-08T01:19:45.666Z,102855.44
2023-02-08T01:22:12.057Z,102823.84
2023-02-08T01:24:38.450Z,102828.72
2023-02-08T01:27:07.146Z,102808.97
2023-02-08T01:29:36.134Z,102795.47
2023-02-08T01:32:02.483Z,102803.63
2023-02-08T01:34:33.514Z,102795.53
2023-02-08T01:36:59.882Z,102788.72
2023-02-08T01:39:26.420Z,102804.09
2023-02-08T01:41:55.697Z,102801.06
2023-02-08T01:45:00.129Z,102795.34
2023-02-08T01:47:26.969Z,102772.88
2023-02-08T01:49:53.545Z,102770.38
2023-02-08T01:52:25.018Z,102763.66
2023-02-08T01:54:57.637Z,102753.63
2023-02-08T01:57:29.796Z,102711.41
2023-02-08T02:00:03.820Z,102706.19
2023-02-08T02:02:34.112Z,102688.00
2023-02-08T02:05:01.585Z,102684.53
2023-02-08T02:07:33.176Z,102672.47
2023-02-08T02:10:14.610Z,102672.78
2023-02-08T02:12:42.791Z,102680.09
2023-02-08T02:15:10.335Z,102657.19
2023-02-08T02:17:39.596Z,102652.25
2023-02-08T02:20:28.499Z,102632.06
2023-02-08T02:22:58.117Z,102638.75
2023-02-08T02:25:41.804Z,102644.44
2023-02-08T02:28:26.699Z,102636.63
2023-02-08T02:31:02.181Z,102624.63
2023-02-08T02:33:35.294Z,102637.94
2023-02-08T02:36:13.627Z,102651.25
2023-02-08T02:39:14.319Z,102641.00
2023-02-08T02:42:10.577Z,102633.16
2023-02-08T02:45:06.207Z,102640.84
2023-02-08T02:47:52.890Z,102632.44
2023-02-08T02:50:42.238Z,102631.94
2023-02-08T02:53:36.590Z,102635.31
2023-02-08T02:56:15.343Z,102627.88
2023-02-08T02:58:44.427Z,102630.66
2023-02-08T03:01:14.019Z,102632.56
2023-02-08T03:03:42.757Z,102626.72
2023-02-08T03:06:22.349Z,102622.66
2023-02-08T03:09:30.920Z,102622.94
2023-02-08T03:12:27.823Z,102623.91
2023-02-08T03:15:22.025Z,102636.78
2023-02-08T03:18:25.878Z,102625.31
2023-02-08T03:21:01.206Z,102628.31
2023-02-08T03:23:40.568Z,102618.84
2023-02-08T03:26:20.408Z,102640.56
2023-02-08T03:29:16.632Z,102626.84
2023-02-08T03:31:57.978Z,102640.41
2023-02-08T03:34:36.309Z,102644.06
2023-02-08T03:37:10.097Z,102629.66
2023-02-08T03:39:38.893Z,102641.72
2023-02-08T03:42:12.187Z,102633.66
2023-02-08T03:44:51.255Z,102638.50
2023-02-08T03:47:24.836Z,102643.31
2023-02-08T03:49:54.040Z,102653.72
2023-02-08T03:52:24.448Z,102645.72
2023-02-08T03:55:16.443Z,102654.06
2023-02-08T03:57:52.864Z,102652.19
2023-02-08T04:00:22.030Z,102647.13
2023-02-08T04:03:02.832Z,102647.13
2023-02-08T04:05:31.922Z,102647.81
2023-02-08T04:07:58.257Z,102640.63
2023-02-08T04:10:24.726Z,102646.25
2023-02-08T04:12:51.355Z,102650.53
2023-02-08T04:15:17.930Z,102646.03
2023-02-08T04:17:44.520Z,102650.03
2023-02-08T04:20:11.346Z,102641.94
2023-02-08T04:22:37.848Z,102647.63
2023-02-08T04:25:04.884Z,102641.63
2023-02-08T04:27:31.377Z,102639.00
2023-02-08T04:29:57.895Z,102642.63
2023-02-08T04:32:24.260Z,102638.31
2023-02-08T04:34:50.652Z,102634.72
2023-02-08T04:37:17.136Z,102646.31
2023-02-08T04:39:43.497Z,102645.41
2023-02-08T04:42:09.989Z,102644.53
2023-02-08T04:44:42.953Z,102631.41
2023-02-08T04:47:09.321Z,102636.94
2023-02-08T04:49:38.106Z,102637.84
2023-02-08T04:52:06.402Z,102638.69
2023-02-08T04:54:33.853Z,102639.69
2023-02-08T04:57:13.363Z,102645.22
2023-02-08T04:59:43.310Z,102644.50
2023-02-08T05:02:12.219Z,102643.56
2023-02-08T05:04:39.057Z,102638.31
2023-02-08T05:07:07.544Z,102635.72
2023-02-08T05:09:34.470Z,102631.81
2023-02-08T05:12:03.575Z,102629.25
2023-02-08T05:14:29.968Z,102632.88
2023-02-08T05:16:56.505Z,102627.16
2023-02-08T05:19:26.443Z,102629.34
2023-02-08T05:21:53.040Z,102646.34
2023-02-08T05:24:24.337Z,102632.59
2023-02-08T05:26:50.943Z,102644.50
2023-02-08T05:29:19.896Z,102634.63
2023-02-08T05:31:46.589Z,102638.84
2023-02-08T05:34:13.107Z,102628.25
2023-02-08T05:36:39.665Z,102634.44
2023-02-08T05:39:08.611Z,102633.59
2023-02-08T05:41:35.060Z,102625.06
2023-02-08T05:44:03.952Z,102626.59
2023-02-08T05:46:30.615Z,102627.84
2023-02-08T05:49:00.268Z,102627.44
2023-02-08T05:51:26.861Z,102634.94
2023-02-08T05:53:53.274Z,102641.97
2023-02-08T05:56:19.929Z,102633.94
2023-02-08T05:58:46.304Z,102631.19
2023-02-08T06:01:13.921Z,102638.00
2023-02-08T06:03:40.712Z,102640.09
2023-02-08T06:06:07.995Z,102651.13
2023-02-08T06:08:34.465Z,102637.03
2023-02-08T06:11:01.164Z,102653.09
2023-02-08T06:13:29.161Z,102651.59
2023-02-08T06:15:56.548Z,102650.88
2023-02-08T06:18:25.614Z,102646.69
2023-02-08T06:20:55.434Z,102648.78
2023-02-08T06:23:22.894Z,102656.41
2023-02-08T06:25:52.721Z,102656.50
2023-02-08T06:28:19.145Z,102652.16
2023-02-08T06:30:45.740Z,102655.72
2023-02-08T06:33:13.922Z,102653.22
2023-02-08T06:35:46.341Z,102658.75
2023-02-08T06:38:14.051Z,102655.09
2023-02-08T06:40:40.972Z,102652.63
2023-02-08T06:43:07.608Z,102660.16
2023-02-08T06:45:36.594Z,102663.94
2023-02-08T06:48:05.575Z,102664.75
2023-02-08T06:50:32.482Z,102660.44
2023-02-08T06:52:59.081Z,102672.09
2023-02-08T06:55:25.461Z,102669.13
2023-02-08T06:57:55.355Z,102669.28
2023-02-08T07:00:22.243Z,102675.66
2023-02-08T07:02:48.639Z,102670.38
2023-02-08T07:05:15.236Z,102665.72
2023-02-08T07:07:41.625Z,102669.28
2023-02-08T07:10:08.189Z,102670.28
2023-02-08T07:12:36.370Z,102672.69
2023-02-08T07:15:03.936Z,102669.81
2023-02-08T07:17:30.303Z,102678.69
2023-02-08T07:19:57.295Z,102666.47
2023-02-08T07:22:23.830Z,102670.63
2023-02-08T07:24:50.294Z,102672.47
2023-02-08T07:27:16.802Z,102673.63
2023-02-08T07:29:43.216Z,102671.34
2023-02-08T07:32:10.136Z,102667.03
2023-02-08T07:34:53.093Z,102664.84
2023-02-08T07:37:20.958Z,102669.34
2023-02-08T07:39:47.593Z,102672.94
2023-02-08T07:42:14.147Z,102657.56
2023-02-08T07:44:45.644Z,102660.13
2023-02-08T07:47:15.520Z,102658.22
2023-02-08T07:49:41.987Z,102665.47
2023-02-08T07:52:08.848Z,102668.97
2023-02-08T07:54:41.423Z,102661.69
2023-02-08T07:57:08.273Z,102663.19
2023-02-08T07:59:37.306Z,102670.97
2023-02-08T08:02:04.098Z,102661.78
2023-02-08T08:04:30.471Z,102650.88
2023-02-08T08:06:59.155Z,102658.69
2023-02-08T08:09:25.612Z,102660.41
2023-02-08T08:11:52.074Z,102648.53
2023-02-08T08:14:18.540Z,102651.50
2023-02-08T08:16:45.028Z,102648.84
2023-02-08T08:19:11.652Z,102641.69
2023-02-08T08:21:40.706Z,102643.09
2023-02-08T08:24:07.226Z,102649.06
2023-02-08T08:26:40.747Z,102658.31
2023-02-08T08:29:07.258Z,102657.34
2023-02-08T08:31:33.745Z,102664.16
2023-02-08T08:34:00.132Z,102684.53
2023-02-08T08:36:26.529Z,102678.88
2023-02-08T08:38:53.033Z,102713.31
2023-02-08T08:41:21.030Z,102665.31
2023-02-08T08:43:49.867Z,102663.72
2023-02-08T08:46:16.753Z,102709.84
2023-02-08T08:48:43.421Z,102682.31
2023-02-08T08:51:12.997Z,102688.00
2023-02-08T08:53:39.696Z,102691.16
2023-02-08T08:56:06.647Z,102711.41
2023-02-08T08:58:33.118Z,102780.47
2023-02-08T09:01:00.379Z,102790.22
2023-02-08T09:03:27.703Z,102670.72
2023-02-08T09:05:58.724Z,102681.03
2023-02-08T09:08:25.265Z,102719.00
2023-02-08T09:10:51.708Z,102744.53
2023-02-08T09:13:21.697Z,102738.34
2023-02-08T09:15:49.348Z,102730.38
2023-02-08T09:18:16.244Z,102809.03
2023-02-08T09:20:43.031Z,102804.00
2023-02-08T09:23:09.743Z,102768.91
2023-02-08T09:25:36.836Z,102764.97
2023-02-08T09:28:03.717Z,102767.34
2023-02-08T09:30:33.558Z,102723.06
2023-02-08T09:32:59.994Z,102749.16
2023-02-08T09:35:26.555Z,102875.31
2023-02-08T09:37:55.398Z,102823.00
2023-02-08T09:40:29.859Z,102819.19
2023-02-08T09:43:31.903Z,102778.03
2023-02-08T09:46:07.950Z,102767.78
2023-02-08T09:48:40.407Z,102870.03
2023-02-08T09:51:25.079Z,102849.91
2023-02-08T09:54:00.013Z,102872.06
2023-02-08T09:56:41.827Z,102883.28
2023-02-08T10:02:38.898Z,102847.66
2023-02-08T10:05:16.998Z,102892.19
2023-02-08T10:07:43.961Z,102873.31
2023-02-08T10:10:35.749Z,102868.53
2023-02-08T10:13:41.557Z,102880.06
2023-02-08T10:16:23.480Z,102887.16
2023-02-08T10:18:52.081Z,102905.00
2023-02-08T10:21:48.794Z,102897.47
2023-02-08T10:24:27.677Z,102909.84
2023-02-08T10:27:08.950Z,102927.44
2023-02-08T10:30:29.574Z,102898.47
2023-02-08T10:33:07.153Z,102906.06
2023-02-08T10:35:42.519Z,102930.09
2023-02-08T10:38:24.988Z,102948.97
2023-02-08T10:41:02.860Z,102933.22
2023-02-08T10:43:38.175Z,102940.19
2023-02-08T10:46:09.135Z,102927.78
2023-02-08T10:48:35.517Z,102927.41
2023-02-08T10:51:02.106Z,102921.72
2023-02-08T10:53:28.617Z,102924.88
2023-02-08T10:55:55.110Z,102928.19
2023-02-08T10:58:28.980Z,102909.28
2023-02-08T11:00:59.619Z,102923.75
2023-02-08T11:03:31.195Z,102917.44
2023-02-08T11:06:00.727Z,102942.84
2023-02-08T11:08:44.553Z,102956.56
2023-02-08T11:11:11.171Z,102971.69
2023-02-08T11:13:40.656Z,102961.66
2023-02-08T11:16:54.482Z,102938.69
2023-02-08T11:19:49.899Z,102919.91
2023-02-08T11:22:32.727Z,102926.53
2023-02-08T11:25:08.078Z,102941.25
2023-02-08T11:27:43.202Z,102956.22
2023-02-08T11:30:19.503Z,102946.00
2023-02-08T11:32:48.887Z,102954.59
2023-02-08T11:35:23.935Z,102948.63
2023-02-08T11:38:02.489Z,102959.03
2023-02-08T11:40:35.966Z,102956.00
2023-02-08T11:43:03.928Z,102942.63
2023-02-08T11:45:33.967Z,102908.84
2023-02-08T11:48:09.632Z,102923.03
2023-02-08T11:50:44.094Z,102927.88
2023-02-08T11:53:27.839Z,102935.00
2023-02-08T11:56:22.630Z,102918.91
2023-02-08T11:59:12.357Z,102915.09
2023-02-08T12:01:41.576Z,102904.31
2023-02-08T12:04:16.506Z,102915.72
2023-02-08T12:06:55.227Z,102910.00
2023-02-08T12:09:59.419Z,102909.00
2023-02-08T12:12:43.769Z,102905.78
2023-02-08T12:15:26.785Z,102913.28
2023-02-08T12:18:31.649Z,102925.34
2023-02-08T12:21:25.647Z,102924.25
2023-02-08T12:24:46.076Z,102924.56
2023-02-08T12:27:24.297Z,102946.53
2023-02-08T12:29:55.321Z,102950.81
2023-02-08T12:32:40.520Z,102952.22
2023-02-08T12:35:10.311Z,102950.22
2023-02-08T12:38:38.113Z,102931.31
2023-02-08T12:41:17.905Z,102913.19
2023-02-08T12:44:06.935Z,102930.31
2023-02-08T12:46:56.268Z,102929.69
2023-02-08T12:49:30.375Z,102925.22
2023-02-08T12:52:21.223Z,102922.81
2023-02-08T12:54:59.136Z,102933.78
2023-02-08T12:57:31.963Z,102897.00
2023-02-08T13:00:09.061Z,102888.66
2023-02-08T13:02:46.078Z,102874.72
2023-02-08T13:05:22.183Z,102884.72
2023-02-08T13:07:58.416Z,102877.69
2023-02-08T13:10:40.422Z,102842.31
2023-02-08T13:13:21.722Z,102833.94
2023-02-08T13:15:59.939Z,102845.09
2023-02-08T13:18:53.521Z,102814.50
2023-02-08T13:21:25.968Z,102811.81
2023-02-08T13:23:55.245Z,102797.72
2023-02-08T13:26:33.286Z,102782.34
2023-02-08T13:29:04.226Z,102778.19
2023-02-08T13:31:58.191Z,102777.13
2023-02-08T13:34:50.911Z,102773.22
2023-02-08T13:37:31.536Z,102761.91
2023-02-08T13:40:09.262Z,102781.63
2023-02-08T13:42:43.988Z,102790.81
2023-02-08T13:45:37.870Z,102787.03
2023-02-08T13:48:13.595Z,102779.03
2023-02-08T13:50:51.176Z,102777.28
2023-02-08T13:53:25.419Z,102788.09
2023-02-08T13:56:01.287Z,102760.22
2023-02-08T13:58:48.020Z,102746.72
2023-02-08T14:01:20.763Z,102750.97
2023-02-08T14:04:12.585Z,102726.63
2023-02-08T14:06:44.167Z,102732.94
2023-02-08T14:09:24.702Z,102751.72
2023-02-08T14:12:00.152Z,102742.44
2023-02-08T14:14:40.080Z,102742.25
2023-02-08T14:17:30.047Z,102740.16
2023-02-08T14:20:06.824Z,102737.91
2023-02-08T14:22:42.198Z,102725.81
2023-02-08T14:25:19.583Z,102723.91
2023-02-08T14:28:25.221Z,102718.25
2023-02-08T14:30:58.730Z,102713.69
2023-02-08T14:33:34.052Z,102695.16
2023-02-08T14:36:08.251Z,102693.59
2023-02-08T14:39:04.084Z,102689.06
2023-02-08T14:42:04.072Z,102680.59
2023-02-08T14:44:41.568Z,102684.28
2023-02-08T14:47:25.846Z,102679.81
2023-02-08T14:50:07.336Z,102661.56
2023-02-08T14:52:35.488Z,102671.72
2023-02-08T14:55:19.843Z,102674.84
2023-02-08T14:57:46.609Z,102672.00
2023-02-08T15:00:24.045Z,102645.91
2023-02-08T15:03:00.504Z,102654.66
2023-02-08T15:05:35.732Z,102645.94
2023-02-08T15:08:10.595Z,102622.22
2023-02-08T15:10:45.447Z,102633.25
2023-02-08T15:13:21.705Z,102621.34
2023-02-08T15:15:53.143Z,102613.97
2023-02-08T15:18:25.068Z,102620.94
2023-02-08T15:21:11.578Z,102610.16
2023-02-08T15:23:40.387Z,102593.66
2023-02-08T15:26:23.997Z,102592.16
2023-02-08T15:29:05.312Z,102577.78
2023-02-08T15:31:33.768Z,102565.13
2023-02-08T15:34:02.348Z,102561.06
2023-02-08T15:36:34.652Z,102546.34
2023-02-08T15:39:24.782Z,102554.34
2023-02-08T15:42:02.663Z,102559.81
2023-02-08T15:44:37.934Z,102558.25
2023-02-08T15:47:34.743Z,102572.44
2023-02-08T15:50:03.161Z,102554.78
2023-02-08T15:52:33.041Z,102552.81
2023-02-08T15:54:59.562Z,102545.78
2023-02-08T15:57:33.572Z,102541.94
2023-02-08T16:00:01.569Z,102529.78
2023-02-08T16:02:37.199Z,102532.81
2023-02-08T16:05:18.041Z,102518.22
2023-02-08T16:07:45.984Z,102489.03
2023-02-08T16:10:36.900Z,102492.41
2023-02-08T16:13:07.569Z,102477.94
2023-02-08T16:16:03.810Z,102481.75
2023-02-08T16:18:34.901Z,102478.28
2023-02-08T16:21:16.118Z,102469.25
2023-02-08T16:23:55.329Z,102460.66
2023-02-08T16:26:33.705Z,102457.38
2023-02-08T16:29:05.240Z,102453.63
2023-02-08T16:31:35.809Z,102452.31
2023-02-08T16:36:51.187Z,102456.41
2023-02-08T16:39:17.914Z,102468.59
2023-02-08T16:42:00.977Z,102455.56
2023-02-08T16:44:39.084Z,102458.84
2023-02-08T16:47:25.725Z,102446.06
2023-02-08T16:49:52.386Z,102449.38
2023-02-08T16:52:19.370Z,102470.75
2023-02-08T16:54:54.660Z,102467.53
2023-02-08T16:57:24.409Z,102464.41
2023-02-08T16:59:59.673Z,102455.28
2023-02-08T17:02:31.376Z,102446.84
2023-02-08T17:04:57.768Z,102449.63
2023-02-08T17:07:29.732Z,102449.44
2023-02-08T17:09:59.515Z,102447.47
2023-02-08T17:12:34.407Z,102447.72
2023-02-08T17:15:04.363Z,102442.59
2023-02-08T17:17:34.990Z,102448.50
2023-02-08T17:20:11.160Z,102454.59
2023-02-08T17:22:37.582Z,102437.72
2023-02-08T17:25:07.078Z,102435.38
2023-02-08T17:27:33.887Z,102435.38
2023-02-08T17:30:02.288Z,102424.09
2023-02-08T17:32:31.274Z,102420.03
2023-02-08T17:35:09.730Z,102408.63
2023-02-08T17:37:36.724Z,102404.63
2023-02-08T17:40:06.495Z,102400.47
2023-02-08T17:42:33.181Z,102404.56
2023-02-08T17:45:01.977Z,102406.88
2023-02-08T17:47:33.474Z,102397.94
2023-02-08T17:50:01.415Z,102402.91
2023-02-08T17:52:30.456Z,102394.63
2023-02-08T17:55:00.525Z,102397.53
2023-02-08T17:57:29.619Z,102373.81
2023-02-08T17:59:56.278Z,102367.03
2023-02-08T18:02:24.866Z,102359.88
2023-02-08T18:04:51.331Z,102354.25
2023-02-08T18:07:25.626Z,102357.78
2023-02-08T18:09:52.280Z,102357.00
2023-02-08T18:12:28.718Z,102349.94
2023-02-08T18:14:58.665Z,102335.69
2023-02-08T18:17:25.227Z,102328.47
2023-02-08T18:19:52.318Z,102342.81
2023-02-08T18:22:22.101Z,102338.16
2023-02-08T18:24:51.970Z,102350.50
2023-02-08T18:27:18.568Z,102340.31
2023-02-08T18:29:51.520Z,102338.03
2023-02-08T18:32:20.437Z,102330.84
2023-02-08T18:34:50.130Z,102344.59
2023-02-08T18:37:20.377Z,102344.53
2023-02-08T18:39:55.515Z,102353.75
2023-02-08T18:42:22.105Z,102352.97
2023-02-08T18:44:58.609Z,102350.34
2023-02-08T18:47:25.257Z,102365.28
2023-02-08T18:49:55.452Z,102357.84
2023-02-08T18:52:23.650Z,102364.91
2023-02-08T18:54:50.347Z,102387.47
2023-02-08T18:57:16.840Z,102372.81
2023-02-08T18:59:46.320Z,102376.16
2023-02-08T19:02:22.166Z,102370.16
2023-02-08T19:04:49.071Z,102369.88
2023-02-08T19:07:16.345Z,102360.34
2023-02-08T19:09:44.290Z,102370.34
2023-02-08T19:12:13.543Z,102374.44
2023-02-08T19:14:43.957Z,102368.38
2023-02-08T19:17:12.444Z,102352.03
2023-02-08T19:19:40.839Z,102346.34
2023-02-08T19:22:07.269Z,102344.91
2023-02-08T19:24:33.806Z,102335.44
2023-02-08T19:27:03.468Z,102341.63
2023-02-08T19:29:29.814Z,102328.13
2023-02-08T19:31:58.387Z,102323.53
2023-02-08T19:34:30.720Z,102331.75
2023-02-08T19:37:01.933Z,102334.66
2023-02-08T19:39:28.399Z,102320.53
2023-02-08T19:41:55.480Z,102334.19
2023-02-08T19:44:23.093Z,102320.59
2023-02-08T19:46:54.871Z,102311.56
2023-02-08T19:49:28.602Z,102313.94
2023-02-08T19:52:02.511Z,102322.97
2023-02-08T19:54:29.311Z,102323.41
2023-02-08T19:57:01.138Z,102331.59
2023-02-08T19:59:29.925Z,102329.63
2023-02-08T20:01:56.845Z,102344.28
2023-02-08T20:04:36.543Z,102330.94
2023-02-08T20:07:07.129Z,102327.13
2023-02-08T20:09:37.017Z,102335.16
2023-02-08T20:12:04.148Z,102339.13
2023-02-08T20:14:34.310Z,102341.41
2023-02-08T20:17:11.039Z,102348.41
2023-02-08T20:19:38.843Z,102376.41
2023-02-08T20:22:07.946Z,102370.72
2023-02-08T20:24:42.057Z,102361.59
2023-02-08T20:27:11.542Z,102370.72
2023-02-08T20:29:40.643Z,102373.94
2023-02-08T20:32:08.142Z,102379.28
2023-02-08T20:34:47.473Z,102370.94
2023-02-08T20:37:22.944Z,102360.44
2023-02-08T20:39:59.523Z,102368.34
2023-02-08T20:42:25.885Z,102360.31
2023-02-08T20:44:53.446Z,102352.75
2023-02-08T20:47:23.207Z,102360.22
2023-02-08T20:49:50.361Z,102362.69
2023-02-08T20:52:28.801Z,102376.50
2023-02-08T20:54:55.621Z,102350.53
2023-02-08T20:57:22.403Z,102359.81
2023-02-08T20:59:53.633Z,102359.28
2023-02-08T21:02:23.324Z,102354.00
2023-02-08T21:04:52.702Z,102354.94
2023-02-08T21:07:27.299Z,102376.31
2023-02-08T21:10:01.738Z,102367.91
2023-02-08T21:12:30.385Z,102376.88
2023-02-08T21:14:58.136Z,102373.28
2023-02-08T21:17:24.776Z,102367.91
2023-02-08T21:19:51.326Z,102363.63
2023-02-08T21:22:20.660Z,102349.81
2023-02-08T21:24:55.161Z,102357.03
2023-02-08T21:27:29.364Z,102360.00
2023-02-08T21:29:56.112Z,102351.03
2023-02-08T21:32:25.088Z,102349.81
2023-02-08T21:34:53.303Z,102351.59
2023-02-08T21:37:22.050Z,102346.19
2023-02-08T21:39:48.520Z,102340.72
2023-02-08T21:42:15.004Z,102336.31
2023-02-08T21:44:41.506Z,102336.25
2023-02-08T21:47:08.017Z,102323.25
2023-02-08T21:49:53.484Z,102321.75
2023-02-08T21:52:51.960Z,102307.31
2023-02-08T21:55:18.372Z,102299.44
2023-02-08T21:57:47.417Z,102298.94
2023-02-08T22:00:14.682Z,102280.63
2023-02-08T22:02:44.620Z,102293.56
2023-02-08T22:05:14.240Z,102293.56
2023-02-08T22:07:56.364Z,102283.31
2023-02-08T22:10:25.634Z,102282.47
2023-02-08T22:12:55.427Z,102273.66
2023-02-08T22:15:24.284Z,102266.03
2023-02-08T22:18:03.384Z,102258.94
2023-02-08T22:20:32.785Z,102254.28
2023-02-08T22:22:59.231Z,102237.84
2023-02-08T22:25:31.122Z,102250.53
2023-02-08T22:28:00.267Z,102249.31
2023-02-08T22:30:26.889Z,102251.41
2023-02-08T22:32:53.381Z,102257.03
2023-02-08T22:35:20.592Z,102248.00
2023-02-08T22:37:47.128Z,102268.00
2023-02-08T22:40:17.134Z,102269.94
2023-02-08T22:42:47.402Z,102273.88
2023-02-08T22:45:16.341Z,102261.19
2023-02-08T22:47:46.212Z,102260.78
2023-02-08T22:50:16.069Z,102270.97
2023-02-08T22:52:45.295Z,102278.47
2023-02-08T22:55:12.336Z,102256.72
2023-02-08T22:57:44.476Z,102265.22
2023-02-08T23:00:19.446Z,102252.41
2023-02-08T23:02:51.293Z,102265.31
2023-02-08T23:05:18.306Z,102269.38
2023-02-08T23:07:44.802Z,102289.22
2023-02-08T23:10:11.635Z,102273.13
2023-02-08T23:12:40.997Z,102256.75
2023-02-08T23:15:16.455Z,102264.00
2023-02-08T23:17:43.400Z,102257.22
2023-02-08T23:20:10.406Z,102259.69
2023-02-08T23:22:37.786Z,102257.81
2023-02-08T23:25:05.051Z,102261.31
2023-02-08T23:27:41.503Z,102255.50
2023-02-08T23:30:10.355Z,102249.06
2023-02-08T23:32:39.901Z,102232.81
2023-02-08T23:35:11.553Z,102232.34
2023-02-08T23:37:38.170Z,102234.34
2023-02-08T23:40:07.510Z,102226.72
2023-02-08T23:42:34.098Z,102232.84
2023-02-08T23:45:01.368Z,102214.94
2023-02-08T23:47:40.392Z,102233.19
2023-02-08T23:50:19.160Z,102223.94
2023-02-08T23:52:45.689Z,102228.00
2023-02-08T23:55:12.352Z,102225.81
2023-02-08T23:57:42.722Z,102231.59
